createdAt,value
2023-04-15T03:51:50.726Z,0.30
2023-04-15T03:54:36.848Z,0.28
2023-04-15T03:57:29.122Z,0.20
2023-04-15T04:00:19.789Z,0.25
2023-04-15T04:03:12.104Z,0.20
2023-04-15T04:05:58.659Z,0.30
2023-04-15T04:08:42.313Z,0.30
2023-04-15T04:11:34.341Z,0.20
2023-04-15T04:14:16.872Z,0.20
2023-04-15T04:17:05.596Z,0.20
2023-04-15T04:19:53.443Z,0.30
2023-04-15T04:22:39.814Z,0.30
2023-04-15T04:29:31.887Z,0.30
2023-04-15T04:33:28.344Z,0.25
2023-04-15T04:37:27.733Z,0.20
2023-04-15T04:41:10.955Z,0.28
2023-04-15T04:44:56.828Z,0.20
2023-04-15T04:51:47.089Z,0.20
2023-04-15T04:55:38.297Z,0.20
2023-04-15T04:58:09.717Z,0.20
2023-04-15T05:00:44.939Z,0.30
2023-04-15T05:03:19.906Z,0.21
2023-04-15T05:05:51.977Z,0.30
2023-04-15T05:08:26.229Z,0.20
2023-04-15T05:10:57.075Z,0.22
2023-04-15T05:13:27.944Z,0.20
2023-04-15T05:16:09.545Z,0.20
2023-04-15T05:18:40.499Z,0.20
2023-04-15T05:21:13.440Z,0.20
2023-04-15T05:23:45.561Z,0.20
2023-04-15T05:26:18.796Z,0.30
2023-04-15T05:28:52.307Z,0.20
2023-04-15T05:31:24.602Z,0.20
2023-04-15T05:33:58.504Z,0.20
2023-04-15T05:36:31.481Z,0.20
2023-04-15T05:39:02.650Z,0.20
2023-04-15T05:41:34.621Z,0.20
2023-04-15T05:44:06.686Z,0.20
2023-04-15T05:46:46.058Z,0.20
2023-04-15T05:49:16.876Z,0.30
2023-04-15T05:51:49.300Z,0.23
2023-04-15T05:54:20.484Z,0.20
2023-04-15T05:56:53.794Z,0.30
2023-04-15T05:59:25.090Z,0.30
2023-04-15T06:01:58.989Z,0.20
2023-04-15T06:04:35.767Z,0.22
2023-04-15T06:07:06.910Z,0.20
2023-04-15T06:09:37.699Z,0.20
2023-04-15T06:12:12.183Z,0.23
2023-04-15T06:14:44.246Z,0.20
2023-04-15T06:17:18.983Z,0.20
2023-04-15T06:19:55.501Z,0.20
2023-04-15T06:22:27.700Z,0.20
2023-04-15T06:24:58.747Z,0.20
2023-04-15T06:27:29.553Z,0.30
2023-04-15T06:30:02.906Z,0.20
2023-04-15T06:32:35.866Z,0.20
2023-04-15T06:35:07.013Z,0.20
2023-04-15T06:37:38.573Z,0.20
2023-04-15T06:40:15.007Z,0.20
2023-04-15T06:42:48.233Z,0.20
2023-04-15T06:45:20.171Z,0.20
2023-04-15T06:47:56.358Z,0.30
2023-04-15T06:50:31.375Z,0.30
2023-04-15T06:53:07.278Z,0.20
2023-04-15T06:55:46.418Z,0.20
2023-04-15T06:58:17.557Z,0.20
2023-04-15T07:00:52.105Z,0.20
2023-04-15T07:03:29.151Z,0.20
2023-04-15T07:06:06.539Z,0.20
2023-04-15T07:08:39.514Z,0.20
2023-04-15T07:11:10.360Z,0.30
2023-04-15T07:13:44.593Z,0.20
2023-04-15T07:16:16.272Z,0.20
2023-04-15T07:18:52.367Z,0.20
2023-04-15T07:21:26.074Z,0.20
2023-04-15T07:24:10.445Z,0.20
2023-04-15T07:26:51.170Z,0.20
2023-04-15T07:29:30.821Z,0.20
2023-04-15T07:32:01.920Z,0.20
2023-04-15T07:34:44.388Z,0.20
2023-04-15T07:37:19.047Z,0.20
2023-04-15T07:39:50.204Z,0.20
2023-04-15T07:42:24.032Z,0.20
2023-04-15T07:44:57.297Z,0.20
2023-04-15T07:47:29.655Z,0.20
2023-04-15T07:50:02.251Z,0.20
2023-04-15T07:52:39.047Z,0.20
2023-04-15T07:55:12.343Z,0.20
2023-04-15T07:57:48.532Z,0.20
2023-04-15T08:00:20.178Z,0.20
2023-04-15T08:02:54.119Z,0.20
2023-04-15T08:05:36.355Z,0.20
2023-04-15T08:08:09.992Z,0.30
2023-04-15T08:10:45.894Z,0.20
2023-04-15T08:13:28.056Z,0.20
2023-04-15T08:16:21.748Z,0.23
2023-04-15T08:18:53.336Z,0.20
2023-04-15T08:21:32.230Z,0.20
2023-04-15T08:24:09.703Z,0.20
2023-04-15T08:26:44.156Z,0.20
2023-04-15T08:29:25.565Z,0.20
2023-04-15T08:32:04.657Z,0.20
2023-04-15T08:34:37.764Z,0.20
2023-04-15T08:37:13.106Z,0.20
2023-04-15T08:39:49.244Z,0.20
2023-04-15T08:42:26.008Z,0.20
2023-04-15T08:45:11.311Z,0.20
2023-04-15T08:47:57.795Z,0.20
2023-04-15T08:50:31.642Z,0.20
2023-04-15T08:53:13.045Z,0.20
2023-04-15T08:55:54.865Z,0.20
2023-04-15T08:58:30.717Z,0.20
2023-04-15T09:01:07.875Z,0.20
2023-04-15T09:03:38.895Z,0.20
2023-04-15T09:06:20.155Z,0.20
2023-04-15T09:09:02.609Z,0.20
2023-04-15T09:11:44.034Z,0.20
2023-04-15T09:14:26.442Z,0.20
2023-04-15T09:17:00.496Z,0.20
2023-04-15T09:19:43.724Z,0.20
2023-04-15T09:22:23.196Z,0.20
2023-04-15T09:24:55.460Z,0.20
2023-04-15T09:27:27.104Z,0.20
2023-04-15T09:30:10.107Z,0.23
2023-04-15T09:32:52.265Z,0.20
2023-04-15T09:35:26.449Z,0.20
2023-04-15T09:38:04.425Z,0.20
2023-04-15T09:40:51.585Z,0.20
2023-04-15T09:43:41.972Z,0.20
2023-04-15T09:46:42.581Z,0.20
2023-04-15T09:49:23.588Z,0.20
2023-04-15T09:52:07.169Z,0.20
2023-04-15T09:54:48.542Z,0.20
2023-04-15T09:57:37.490Z,0.20
2023-04-15T10:00:21.995Z,0.20
2023-04-15T10:03:04.437Z,0.20
2023-04-15T10:05:48.576Z,0.20
2023-04-15T10:08:29.795Z,0.20
2023-04-15T10:11:14.086Z,0.20
2023-04-15T10:13:56.231Z,0.20
2023-04-15T10:16:34.696Z,0.20
2023-04-15T10:19:20.894Z,0.20
2023-04-15T10:22:08.500Z,0.20
2023-04-15T10:24:53.214Z,0.18
2023-04-15T10:27:38.071Z,0.20
2023-04-15T10:30:27.748Z,0.20
2023-04-15T10:33:16.292Z,0.20
2023-04-15T10:36:11.617Z,0.17
2023-04-15T10:39:00.221Z,0.15
2023-04-15T10:41:47.783Z,0.17
2023-04-15T10:44:40.585Z,0.18
2023-04-15T10:47:28.585Z,0.20
2023-04-15T10:50:17.002Z,0.09
2023-04-15T10:53:08.046Z,0.20
2023-04-15T10:55:49.886Z,0.10
2023-04-15T10:58:42.920Z,0.08
2023-04-15T11:01:43.960Z,0.10
2023-04-15T11:04:50.428Z,0.10
2023-04-15T11:07:37.629Z,0.15
2023-04-15T11:10:36.230Z,0.13
2023-04-15T11:13:49.419Z,0.14
2023-04-15T11:17:36.386Z,0.09
2023-04-15T11:20:24.392Z,0.10
2023-04-15T11:23:17.984Z,0.10
2023-04-15T11:26:09.848Z,0.08
2023-04-15T11:29:05.797Z,0.10
2023-04-15T11:32:12.838Z,0.10
2023-04-15T11:35:00.479Z,0.10
2023-04-15T11:37:52.741Z,0.05
2023-04-15T11:40:53.255Z,0.00
2023-04-15T11:43:52.562Z,0.00
2023-04-15T11:46:49.119Z,0.00
2023-04-15T11:50:01.310Z,0.10
2023-04-15T11:53:03.424Z,0.10
2023-04-15T11:56:22.467Z,0.00
2023-04-15T12:03:10.428Z,0.04
2023-04-15T12:06:56.774Z,0.05
2023-04-15T12:10:26.276Z,0.00
2023-04-15T12:13:52.524Z,0.00
2023-04-15T12:17:19.342Z,0.00
2023-04-15T12:20:45.815Z,0.00
2023-04-15T12:27:52.656Z,0.00
2023-04-15T12:31:22.925Z,0.00
2023-04-15T12:37:43.673Z,0.00
2023-04-15T12:44:00.790Z,0.00
2023-04-15T12:47:12.116Z,0.00
2023-04-15T12:50:25.460Z,0.03
2023-04-15T12:53:29.796Z,0.08
2023-04-15T12:56:37.819Z,0.10
2023-04-15T12:59:39.832Z,0.05
2023-04-15T13:02:45.499Z,0.10
2023-04-15T13:06:02.282Z,0.08
2023-04-15T13:09:08.723Z,0.10
2023-04-15T13:12:15.412Z,0.10
2023-04-15T13:15:23.497Z,0.08
2023-04-15T13:18:32.208Z,0.08
2023-04-15T13:21:53.864Z,0.10
2023-04-15T13:24:49.890Z,0.10
2023-04-15T13:27:32.297Z,0.08
2023-04-15T13:30:21.004Z,0.10
2023-04-15T13:33:07.403Z,0.08
2023-04-15T13:36:00.556Z,0.10
2023-04-15T13:38:55.612Z,0.10
2023-04-15T13:42:06.997Z,0.08
2023-04-15T13:45:07.448Z,0.05
2023-04-15T13:48:03.558Z,0.03
2023-04-15T13:51:02.493Z,0.10
2023-04-15T13:54:04.328Z,0.20
2023-04-15T13:57:04.208Z,0.08
2023-04-15T14:00:27.340Z,0.08
2023-04-15T14:18:51.004Z,0.10
2023-04-15T14:21:52.116Z,0.10
2023-04-15T14:25:08.166Z,0.03
2023-04-15T14:28:13.325Z,0.05
2023-04-15T14:31:21.091Z,0.17
2023-04-15T14:34:38.120Z,0.10
2023-04-15T14:40:53.291Z,0.10
2023-04-15T14:47:01.177Z,0.10
2023-04-15T14:50:20.661Z,0.00
2023-04-15T14:59:38.004Z,0.10
2023-04-15T15:03:00.358Z,0.00
2023-04-15T15:06:05.427Z,0.00
2023-04-15T15:09:15.040Z,0.00
2023-04-15T15:12:16.564Z,0.10
2023-04-15T15:18:37.686Z,0.10
2023-04-15T15:21:44.877Z,0.08
2023-04-15T15:25:04.931Z,0.06
2023-04-15T15:28:22.895Z,0.10
2023-04-15T15:31:24.280Z,0.10
2023-04-15T15:34:27.129Z,0.17
2023-04-15T15:40:13.752Z,0.08
2023-04-15T15:43:13.646Z,0.08
2023-04-15T15:46:24.283Z,0.08
2023-04-15T15:49:19.788Z,0.17
2023-04-15T15:52:27.154Z,0.10
2023-04-15T15:55:23.397Z,0.10
2023-04-15T15:58:22.533Z,0.08
2023-04-15T16:01:21.056Z,0.20
2023-04-15T16:04:43.336Z,0.11
2023-04-15T16:07:40.955Z,0.08
2023-04-15T16:10:32.450Z,0.17
2023-04-15T16:13:24.478Z,0.10
2023-04-15T16:16:47.119Z,0.19
2023-04-15T16:19:59.121Z,0.13
2023-04-15T16:23:18.452Z,0.20
2023-04-15T16:26:47.671Z,0.15
2023-04-15T16:30:04.618Z,0.15
2023-04-15T16:42:37.876Z,0.17
2023-04-15T16:46:26.520Z,0.08
2023-04-15T16:56:23.618Z,0.10
2023-04-15T17:00:06.446Z,0.10
2023-04-15T17:03:56.368Z,0.13
2023-04-15T17:07:31.095Z,0.17
2023-04-15T17:11:04.662Z,0.20
2023-04-15T17:14:55.552Z,0.20
2023-04-15T17:18:51.712Z,0.16
2023-04-15T17:22:44.782Z,0.10
2023-04-15T17:26:31.154Z,0.10
2023-04-15T17:46:02.653Z,0.17
2023-04-15T17:48:57.810Z,0.20
2023-04-15T17:52:06.302Z,0.11
2023-04-15T17:55:17.761Z,0.20
2023-04-15T17:58:21.323Z,0.20
2023-04-15T18:01:26.033Z,0.20
2023-04-15T18:07:59.258Z,0.20
2023-04-15T18:11:14.707Z,0.20
2023-04-15T18:14:40.013Z,0.20
2023-04-15T18:17:55.758Z,0.20
2023-04-15T18:20:45.035Z,0.20
2023-04-15T18:23:33.596Z,0.17
2023-04-15T18:26:19.349Z,0.20
2023-04-15T18:29:03.876Z,0.20
2023-04-15T18:31:47.484Z,0.20
2023-04-15T18:34:39.413Z,0.20
2023-04-15T18:37:22.818Z,0.20
2023-04-15T18:40:16.241Z,0.20
2023-04-15T18:43:04.845Z,0.20
2023-04-15T18:45:54.980Z,0.20
2023-04-15T18:48:46.073Z,0.20
2023-04-15T18:51:38.301Z,0.20
2023-04-15T18:54:37.766Z,0.20
2023-04-15T18:57:32.277Z,0.20
2023-04-15T19:00:25.593Z,0.20
2023-04-15T19:03:15.785Z,0.20
2023-04-15T19:10:30.604Z,0.20
2023-04-15T19:42:39.800Z,0.20
2023-04-15T19:46:35.128Z,0.20
2023-04-15T19:50:27.732Z,0.15
2023-04-15T19:53:49.558Z,0.20
2023-04-15T19:57:08.139Z,0.20
2023-04-15T20:03:45.232Z,0.26
2023-04-15T20:07:03.898Z,0.20
2023-04-15T20:10:38.034Z,0.14
2023-04-15T20:14:06.269Z,0.20
2023-04-15T20:17:48.127Z,0.20
2023-04-15T20:21:41.274Z,0.17
2023-04-15T20:25:35.795Z,0.17
2023-04-15T20:29:19.784Z,0.17
2023-04-15T20:32:59.615Z,0.13
2023-04-15T21:35:46.871Z,0.20
2023-04-15T21:39:48.250Z,0.20
2023-04-15T21:43:38.469Z,0.24
2023-04-15T21:47:26.328Z,0.20
2023-04-15T22:00:57.518Z,0.20
2023-04-15T22:05:02.568Z,0.20
2023-04-15T22:08:57.842Z,0.15
2023-04-15T22:12:45.835Z,0.17
